createdAt,value
2023-01-28T00:01:05.472Z,101211.03
2023-01-28T00:03:32.493Z,101204.00
2023-01-28T00:06:13.836Z,101205.81
2023-01-28T00:08:42.031Z,101199.69
2023-01-28T00:11:12.654Z,101201.56
2023-01-28T00:13:40.667Z,101192.84
2023-01-28T00:16:09.927Z,101184.94
2023-01-28T00:18:37.692Z,101184.84
2023-01-28T00:21:13.656Z,101183.13
2023-01-28T00:23:43.369Z,101178.72
2023-01-28T00:26:15.370Z,101175.31
2023-01-28T00:28:43.319Z,101184.94
2023-01-28T00:31:22.833Z,101178.66
2023-01-28T00:33:51.844Z,101170.97
2023-01-28T00:36:21.132Z,101168.47
2023-01-28T00:38:59.575Z,101172.63
2023-01-28T00:41:29.633Z,101168.22
2023-01-28T00:43:56.979Z,101171.72
2023-01-28T00:46:26.625Z,101169.03
2023-01-28T00:48:53.818Z,101169.09
2023-01-28T00:51:21.715Z,101169.91
2023-01-28T00:53:48.900Z,101172.63
2023-01-28T00:56:17.993Z,101163.72
2023-01-28T00:58:45.538Z,101175.22
2023-01-28T01:01:17.057Z,101173.34
2023-01-28T01:03:44.770Z,101163.72
2023-01-28T01:06:14.248Z,101178.47
2023-01-28T01:08:42.911Z,101177.50
2023-01-28T01:11:12.107Z,101173.91
2023-01-28T01:13:39.251Z,101180.75
2023-01-28T01:16:16.704Z,101179.88
2023-01-28T01:18:44.105Z,101177.00
2023-01-28T01:21:18.742Z,101182.31
2023-01-28T01:23:47.201Z,101186.53
2023-01-28T01:26:14.975Z,101186.53
2023-01-28T01:28:42.568Z,101192.50
2023-01-28T01:31:17.713Z,101185.47
2023-01-28T01:33:47.534Z,101192.50
2023-01-28T01:36:17.315Z,101196.81
2023-01-28T01:38:44.360Z,101194.03
2023-01-28T01:41:30.074Z,101196.66
2023-01-28T01:44:02.530Z,101196.72
2023-01-28T01:46:43.689Z,101194.94
2023-01-28T01:49:27.671Z,101200.16
2023-01-28T01:52:02.652Z,101200.97
2023-01-28T01:54:32.664Z,101191.25
2023-01-28T01:57:01.561Z,101193.88
2023-01-28T01:59:33.096Z,101195.59
2023-01-28T02:02:08.202Z,101204.31
2023-01-28T02:04:44.786Z,101205.94
2023-01-28T02:07:16.235Z,101202.34
2023-01-28T02:09:43.355Z,101202.44
2023-01-28T02:12:18.776Z,101201.44
2023-01-28T02:15:15.181Z,101192.00
2023-01-28T02:17:42.812Z,101184.97
2023-01-28T02:20:13.283Z,101196.31
2023-01-28T02:22:55.458Z,101187.59
2023-01-28T02:25:41.516Z,101195.31
2023-01-28T02:28:36.039Z,101190.03
2023-01-28T02:31:25.402Z,101189.94
2023-01-28T02:34:25.870Z,101195.00
2023-01-28T02:37:10.039Z,101201.03
2023-01-28T02:39:46.089Z,101202.72
2023-01-28T02:42:20.229Z,101189.59
2023-01-28T02:44:47.199Z,101186.09
2023-01-28T02:47:34.620Z,101189.59
2023-01-28T02:50:06.016Z,101182.59
2023-01-28T02:53:23.426Z,101181.59
2023-01-28T02:56:21.239Z,101185.03
2023-01-28T02:59:01.404Z,101173.69
2023-01-28T03:01:44.836Z,101173.69
2023-01-28T03:04:27.247Z,101172.81
2023-01-28T03:07:04.227Z,101163.25
2023-01-28T03:09:32.434Z,101155.28
2023-01-28T03:12:30.008Z,101168.31
2023-01-28T03:15:39.893Z,101165.72
2023-01-28T03:19:06.723Z,101177.13
2023-01-28T03:21:59.934Z,101169.28
2023-01-28T03:24:52.204Z,101176.22
2023-01-28T03:27:54.821Z,101175.31
2023-01-28T03:30:51.673Z,101173.53
2023-01-28T03:33:37.660Z,101183.88
2023-01-28T03:36:25.534Z,101183.78
2023-01-28T03:38:52.915Z,101180.38
2023-01-28T03:41:26.538Z,101186.31
2023-01-28T03:43:53.734Z,101182.00
2023-01-28T03:46:20.947Z,101193.31
2023-01-28T03:48:47.976Z,101194.94
2023-01-28T03:51:15.856Z,101199.34
2023-01-28T03:53:42.856Z,101197.56
2023-01-28T03:56:09.870Z,101192.34
2023-01-28T03:58:57.055Z,101203.59
2023-01-28T04:01:24.426Z,101213.94
2023-01-28T04:03:51.849Z,101213.13
2023-01-28T04:06:18.923Z,101216.53
2023-01-28T04:08:49.086Z,101213.84
2023-01-28T04:11:16.071Z,101223.38
2023-01-28T04:13:43.965Z,101225.09
2023-01-28T04:16:12.599Z,101218.06
2023-01-28T04:18:39.702Z,101218.06
2023-01-28T04:21:06.823Z,101225.00
2023-01-28T04:23:33.783Z,101223.22
2023-01-28T04:26:00.761Z,101225.72
2023-01-28T04:28:27.995Z,101230.94
2023-01-28T04:30:54.964Z,101230.13
2023-01-28T04:33:22.546Z,101227.44
2023-01-28T04:35:49.572Z,101229.16
2023-01-28T04:38:16.607Z,101226.53
2023-01-28T04:40:43.555Z,101228.25
2023-01-28T04:43:10.568Z,101225.47
2023-01-28T04:45:37.535Z,101225.38
2023-01-28T04:48:04.550Z,101234.72
2023-01-28T04:50:31.547Z,101232.31
2023-01-28T04:52:58.509Z,101231.31
2023-01-28T04:55:25.546Z,101228.88
2023-01-28T04:57:52.553Z,101228.88
2023-01-28T05:00:19.986Z,101238.50
2023-01-28T05:02:46.992Z,101227.91
2023-01-28T05:05:14.383Z,101233.91
2023-01-28T05:07:41.489Z,101232.13
2023-01-28T05:10:09.591Z,101223.59
2023-01-28T05:12:36.668Z,101232.13
2023-01-28T05:15:04.405Z,101228.69
2023-01-28T05:17:31.442Z,101233.84
2023-01-28T05:19:58.414Z,101227.81
2023-01-28T05:22:25.420Z,101238.22
2023-01-28T05:24:52.402Z,101238.16
2023-01-28T05:27:19.448Z,101238.97
2023-01-28T05:29:46.592Z,101244.25
2023-01-28T05:32:13.611Z,101243.38
2023-01-28T05:34:40.639Z,101251.19
2023-01-28T05:37:07.583Z,101247.69
2023-01-28T05:39:34.670Z,101255.41
2023-01-28T05:42:01.700Z,101255.50
2023-01-28T05:44:28.764Z,101258.91
2023-01-28T05:46:55.713Z,101254.50
2023-01-28T05:49:22.899Z,101260.53
2023-01-28T05:51:49.927Z,101260.53
2023-01-28T05:54:16.919Z,101270.97
2023-01-28T05:56:44.163Z,101268.34
2023-01-28T05:59:12.186Z,101276.25
2023-01-28T06:01:39.721Z,101273.56
2023-01-28T06:04:06.781Z,101277.16
2023-01-28T06:06:33.818Z,101269.25
2023-01-28T06:09:00.803Z,101277.06
2023-01-28T06:11:27.779Z,101281.31
2023-01-28T06:13:54.768Z,101284.81
2023-01-28T06:16:21.750Z,101284.00
2023-01-28T06:18:48.701Z,101289.31
2023-01-28T06:21:15.650Z,101291.00
2023-01-28T06:23:42.605Z,101297.84
2023-01-28T06:26:09.618Z,101299.47
2023-01-28T06:28:36.688Z,101302.16
2023-01-28T06:31:03.865Z,101301.25
2023-01-28T06:33:31.090Z,101305.41
2023-01-28T06:35:58.162Z,101310.59
2023-01-28T06:38:25.228Z,101308.81
2023-01-28T06:40:55.962Z,101323.72
2023-01-28T06:43:28.177Z,101312.31
2023-01-28T06:45:55.626Z,101316.72
2023-01-28T06:48:23.156Z,101316.72
2023-01-28T06:50:50.353Z,101327.94
2023-01-28T06:53:18.679Z,101327.94
2023-01-28T06:55:46.169Z,101331.56
2023-01-28T06:58:14.380Z,101335.16
2023-01-28T07:00:41.916Z,101332.28
2023-01-28T07:03:09.019Z,101333.16
2023-01-28T07:05:36.229Z,101327.06
2023-01-28T07:08:03.465Z,101326.97
2023-01-28T07:10:30.956Z,101325.34
2023-01-28T07:12:58.025Z,101329.56
2023-01-28T07:15:25.065Z,101326.97
2023-01-28T07:17:52.208Z,101326.06
2023-01-28T07:20:19.397Z,101327.78
2023-01-28T07:22:46.929Z,101332.09
2023-01-28T07:25:15.394Z,101333.06
2023-01-28T07:27:53.857Z,101340.91
2023-01-28T07:30:22.234Z,101329.56
2023-01-28T07:32:54.703Z,101332.19
2023-01-28T07:35:22.435Z,101332.09
2023-01-28T07:37:59.022Z,101325.16
2023-01-28T07:40:27.856Z,101336.50
2023-01-28T07:42:56.419Z,101333.78
2023-01-28T07:45:25.366Z,101331.28
2023-01-28T07:48:02.441Z,101333.97
2023-01-28T07:50:31.265Z,101334.88
2023-01-28T07:52:58.641Z,101343.59
2023-01-28T07:55:26.193Z,101335.78
2023-01-28T07:57:56.226Z,101340.19
2023-01-28T08:00:25.099Z,101348.00
2023-01-28T08:03:04.410Z,101357.72
2023-01-28T08:05:45.069Z,101355.00
2023-01-28T08:08:12.561Z,101342.06
2023-01-28T08:10:40.063Z,101352.59
2023-01-28T08:13:08.061Z,101359.59
2023-01-28T08:15:35.648Z,101351.88
2023-01-28T08:18:04.539Z,101360.59
2023-01-28T08:20:31.736Z,101360.69
2023-01-28T08:23:17.936Z,101363.38
2023-01-28T08:25:46.665Z,101370.31
2023-01-28T08:28:16.372Z,101388.81
2023-01-28T08:30:44.580Z,101378.41
2023-01-28T08:33:15.338Z,101381.91
2023-01-28T08:35:42.412Z,101378.50
2023-01-28T08:38:11.974Z,101387.41
2023-01-28T08:40:39.133Z,101384.88
2023-01-28T08:43:06.207Z,101390.19
2023-01-28T08:45:33.370Z,101384.16
2023-01-28T08:48:04.532Z,101381.63
2023-01-28T08:50:38.093Z,101388.66
2023-01-28T08:53:12.968Z,101381.72
2023-01-28T08:55:40.003Z,101387.13
2023-01-28T08:58:12.245Z,101392.53
2023-01-28T09:00:40.046Z,101383.91
2023-01-28T09:03:08.005Z,101388.31
2023-01-28T09:05:37.416Z,101380.47
2023-01-28T09:08:08.006Z,101396.22
2023-01-28T09:10:37.568Z,101401.69
2023-01-28T09:13:14.314Z,101390.56
2023-01-28T09:15:42.159Z,101392.25
2023-01-28T09:18:09.261Z,101395.03
2023-01-28T09:20:38.025Z,101393.25
2023-01-28T09:23:05.596Z,101397.75
2023-01-28T09:25:32.769Z,101404.03
2023-01-28T09:27:59.719Z,101400.53
2023-01-28T09:30:27.585Z,101404.13
2023-01-28T09:32:56.611Z,101415.81
2023-01-28T09:35:24.542Z,101415.72
2023-01-28T09:37:52.159Z,101409.72
2023-01-28T09:40:24.561Z,101416.81
2023-01-28T09:43:07.354Z,101431.22
2023-01-28T09:45:42.749Z,101431.94
2023-01-28T09:48:19.789Z,101434.63
2023-01-28T09:50:51.630Z,101436.59
2023-01-28T09:53:37.412Z,101436.69
2023-01-28T09:56:11.485Z,101436.88
2023-01-28T09:58:38.686Z,101422.56
2023-01-28T10:01:36.405Z,101425.25
2023-01-28T10:04:55.164Z,101436.97
2023-01-28T10:07:57.705Z,101432.56
2023-01-28T10:10:34.653Z,101421.03
2023-01-28T10:14:01.609Z,101428.22
2023-01-28T10:16:51.885Z,101431.09
2023-01-28T10:19:30.955Z,101425.25
2023-01-28T10:22:11.999Z,101426.41
2023-01-28T10:24:46.332Z,101430.66
2023-01-28T10:27:24.689Z,101429.09
2023-01-28T10:29:53.242Z,101434.50
2023-01-28T10:32:36.858Z,101433.78
2023-01-28T10:35:06.816Z,101428.56
2023-01-28T10:37:38.100Z,101427.94
2023-01-28T10:40:06.248Z,101426.13
2023-01-28T10:42:38.593Z,101430.91
2023-01-28T10:45:30.046Z,101437.13
2023-01-28T10:48:15.063Z,101418.94
2023-01-28T10:50:57.159Z,101419.84
2023-01-28T10:53:46.355Z,101435.13
2023-01-28T10:56:24.951Z,101433.59
2023-01-28T10:59:05.389Z,101433.75
2023-01-28T11:01:49.263Z,101414.06
2023-01-28T11:04:23.260Z,101406.22
2023-01-28T11:07:21.452Z,101398.22
2023-01-28T11:09:51.790Z,101409.81
2023-01-28T11:12:26.595Z,101402.78
2023-01-28T11:14:55.878Z,101406.13
2023-01-28T11:17:26.582Z,101410.88
2023-01-28T11:19:55.598Z,101409.34
2023-01-28T11:22:36.124Z,101406.47
2023-01-28T11:25:28.700Z,101392.25
2023-01-28T11:27:56.379Z,101377.75
2023-01-28T11:30:36.613Z,101368.25
2023-01-28T11:33:13.039Z,101371.94
2023-01-28T11:35:40.084Z,101376.66
2023-01-28T11:38:24.265Z,101368.41
2023-01-28T11:40:53.346Z,101378.13
2023-01-28T11:43:26.836Z,101351.56
2023-01-28T11:46:05.325Z,101357.97
2023-01-28T11:48:56.260Z,101343.81
2023-01-28T11:51:43.208Z,101368.28
2023-01-28T11:55:20.879Z,101370.31
2023-01-28T11:58:37.121Z,101355.47
2023-01-28T12:01:25.111Z,101345.09
2023-01-28T12:04:42.526Z,101352.03
2023-01-28T12:07:33.754Z,101350.16
2023-01-28T12:10:12.771Z,101334.56
2023-01-28T12:13:17.729Z,101339.97
2023-01-28T12:16:34.885Z,101328.63
2023-01-28T12:19:46.465Z,101329.94
2023-01-28T12:23:00.261Z,101310.31
2023-01-28T12:25:50.790Z,101309.59
2023-01-28T12:28:30.877Z,101310.56
2023-01-28T12:31:25.480Z,101315.38
2023-01-28T12:34:36.187Z,101288.78
2023-01-28T12:37:40.403Z,101286.09
2023-01-28T12:40:26.685Z,101279.78
2023-01-28T12:43:10.617Z,101282.72
2023-01-28T12:45:55.779Z,101295.31
2023-01-28T12:48:40.254Z,101279.88
2023-01-28T12:54:12.483Z,101258.97
2023-01-28T12:56:51.355Z,101250.41
2023-01-28T12:59:40.022Z,101244.84
2023-01-28T13:02:13.373Z,101235.38
2023-01-28T13:04:54.843Z,101226.56
2023-01-28T13:07:34.997Z,101245.03
2023-01-28T13:10:25.741Z,101237.19
2023-01-28T13:12:54.039Z,101237.91
2023-01-28T13:15:22.317Z,101236.38
2023-01-28T13:18:05.370Z,101221.94
2023-01-28T13:20:53.500Z,101223.16
2023-01-28T13:23:45.300Z,101209.03
2023-01-28T13:26:24.762Z,101206.25
2023-01-28T13:28:57.718Z,101201.94
2023-01-28T13:31:25.060Z,101203.41
2023-01-28T13:33:54.766Z,101213.03
2023-01-28T13:36:30.524Z,101215.66
2023-01-28T13:39:21.294Z,101209.44
2023-01-28T13:41:55.477Z,101203.41
2023-01-28T13:44:29.761Z,101219.16
2023-01-28T13:47:27.852Z,101233.84
2023-01-28T13:49:59.359Z,101237.09
2023-01-28T13:52:45.935Z,101255.63
2023-01-28T13:55:13.088Z,101273.25
2023-01-28T13:58:23.174Z,101253.69
2023-01-28T14:01:20.535Z,101258.00
2023-01-28T14:04:27.221Z,101272.59
2023-01-28T14:07:10.954Z,101266.19
2023-01-28T14:10:15.668Z,101272.06
2023-01-28T14:13:13.046Z,101262.09
2023-01-28T14:16:43.390Z,101263.91
2023-01-28T14:19:14.533Z,101257.19
2023-01-28T14:21:41.802Z,101266.91
2023-01-28T14:24:18.003Z,101257.03
2023-01-28T14:27:14.069Z,101265.50
2023-01-28T14:30:24.289Z,101247.06
2023-01-28T14:32:53.888Z,101249.44
2023-01-28T14:35:34.478Z,101259.13
2023-01-28T14:38:09.648Z,101254.66
2023-01-28T14:40:40.986Z,101253.66
2023-01-28T14:43:16.243Z,101245.66
2023-01-28T14:45:49.330Z,101240.44
2023-01-28T14:48:44.159Z,101222.81
2023-01-28T14:52:11.964Z,101232.53
2023-01-28T14:55:01.162Z,101217.44
2023-01-28T14:57:52.835Z,101217.91
2023-01-28T15:00:26.452Z,101219.72
2023-01-28T15:02:53.548Z,101215.38
2023-01-28T15:05:27.793Z,101206.06
2023-01-28T15:07:56.107Z,101205.97
2023-01-28T15:10:31.776Z,101216.50
2023-01-28T15:13:05.174Z,101222.44
2023-01-28T15:15:39.598Z,101215.25
2023-01-28T15:18:22.647Z,101223.00
2023-01-28T15:20:53.768Z,101220.31
2023-01-28T15:23:36.010Z,101222.00
2023-01-28T15:26:20.614Z,101210.59
2023-01-28T15:28:49.691Z,101194.78
2023-01-28T15:31:32.909Z,101192.91
2023-01-28T15:34:15.488Z,101178.69
2023-01-28T15:36:42.730Z,101165.41
2023-01-28T15:39:23.625Z,101152.03
2023-01-28T15:41:54.750Z,101155.44
2023-01-28T15:44:31.133Z,101171.09
2023-01-28T15:47:01.289Z,101173.78
2023-01-28T15:49:34.522Z,101172.81
2023-01-28T15:52:01.966Z,101176.22
2023-01-28T15:54:30.620Z,101184.75
2023-01-28T15:57:09.368Z,101193.47
2023-01-28T15:59:36.399Z,101202.19
2023-01-28T16:02:22.006Z,101192.22
2023-01-28T16:05:10.664Z,101201.75
2023-01-28T16:07:46.404Z,101195.47
2023-01-28T16:10:28.975Z,101200.59
2023-01-28T16:13:16.839Z,101178.84
2023-01-28T16:15:48.891Z,101168.41
2023-01-28T16:18:55.800Z,101163.69
2023-01-28T16:21:32.145Z,101170.69
2023-01-28T16:24:02.912Z,101172.38
2023-01-28T16:26:33.511Z,101185.34
2023-01-28T16:29:15.585Z,101172.13
2023-01-28T16:31:42.716Z,101134.53
2023-01-28T16:34:11.772Z,101116.38
2023-01-28T16:36:39.587Z,101118.19
2023-01-28T16:39:06.637Z,101085.03
2023-01-28T16:41:41.412Z,101071.91
2023-01-28T16:44:24.549Z,101056.19
2023-01-28T16:46:51.523Z,101050.91
2023-01-28T16:49:18.572Z,101060.25
2023-01-28T16:51:45.605Z,101068.06
2023-01-28T16:54:26.028Z,101078.41
2023-01-28T16:57:04.213Z,101096.63
2023-01-28T16:59:40.959Z,101100.31
2023-01-28T17:02:12.409Z,101092.16
2023-01-28T17:04:39.491Z,101075.44
2023-01-28T17:07:07.224Z,101066.81
2023-01-28T17:09:34.744Z,101058.19
2023-01-28T17:12:05.008Z,101039.78
2023-01-28T17:14:32.433Z,101041.50
2023-01-28T17:16:59.371Z,101022.94
2023-01-28T17:19:26.405Z,101021.56
2023-01-28T17:21:53.461Z,100979.53
2023-01-28T17:24:20.506Z,100962.22
2023-01-28T17:26:47.626Z,100955.38
2023-01-28T17:29:14.649Z,100949.28
2023-01-28T17:31:44.877Z,100941.13
2023-01-28T17:34:12.588Z,100951.72
2023-01-28T17:36:39.675Z,100953.34
2023-01-28T17:39:07.580Z,100955.94
2023-01-28T17:41:34.753Z,100927.84
2023-01-28T17:44:01.907Z,100924.44
2023-01-28T17:46:28.979Z,100906.75
2023-01-28T17:48:55.933Z,100906.94
2023-01-28T17:51:23.587Z,100876.97
2023-01-28T17:53:53.026Z,100875.44
2023-01-28T17:56:26.808Z,100873.56
2023-01-28T17:58:57.317Z,100867.53
2023-01-28T18:01:26.709Z,100856.16
2023-01-28T18:03:55.199Z,100878.75
2023-01-28T18:06:22.569Z,100885.69
2023-01-28T18:08:49.819Z,100882.25
2023-01-28T18:11:22.450Z,100878.50
2023-01-28T18:13:49.694Z,100879.41
2023-01-28T18:16:19.499Z,100881.13
2023-01-28T18:18:48.284Z,100888.84
2023-01-28T18:21:51.793Z,100880.78
2023-01-28T18:24:21.063Z,100896.56
2023-01-28T18:26:48.151Z,100913.97
2023-01-28T18:29:20.383Z,100905.09
2023-01-28T18:31:52.002Z,100903.16
2023-01-28T18:34:19.061Z,100904.69
2023-01-28T18:36:47.015Z,100898.84
2023-01-28T18:39:18.888Z,100903.16
2023-01-28T18:41:46.454Z,100870.19
2023-01-28T18:44:16.685Z,100881.25
2023-01-28T18:46:45.178Z,100871.75
2023-01-28T18:49:12.380Z,100878.75
2023-01-28T18:51:39.582Z,100875.31
2023-01-28T18:54:11.535Z,100857.84
2023-01-28T18:56:40.696Z,100838.47
2023-01-28T18:59:12.086Z,100829.84
2023-01-28T19:01:40.750Z,100830.00
2023-01-28T19:04:07.930Z,100820.16
2023-01-28T19:06:35.623Z,100811.38
2023-01-28T19:09:09.006Z,100805.44
2023-01-28T19:11:38.599Z,100781.94
2023-01-28T19:14:13.073Z,100778.34
2023-01-28T19:16:40.373Z,100780.06
2023-01-28T19:19:08.384Z,100791.38
2023-01-28T19:21:35.815Z,100808.69
2023-01-28T19:24:09.269Z,100806.81
2023-01-28T19:26:38.265Z,100820.47
2023-01-28T19:29:10.408Z,100844.69
2023-01-28T19:31:39.321Z,100845.69
2023-01-28T19:34:07.007Z,100826.66
2023-01-28T19:36:35.635Z,100808.59
2023-01-28T19:39:08.502Z,100791.19
2023-01-28T19:41:36.559Z,100792.66
2023-01-28T19:44:05.026Z,100781.25
2023-01-28T19:46:32.705Z,100770.03
2023-01-28T19:49:00.026Z,100792.50
2023-01-28T19:51:26.946Z,100804.25
2023-01-28T19:53:55.577Z,100808.56
2023-01-28T19:56:25.630Z,100808.66
2023-01-28T19:58:54.570Z,100793.94
2023-01-28T20:01:27.922Z,100793.69
2023-01-28T20:03:59.381Z,100820.44
2023-01-28T20:06:29.632Z,100828.97
2023-01-28T20:09:10.727Z,100863.50
2023-01-28T20:11:37.740Z,100905.13
2023-01-28T20:14:04.795Z,100908.44
2023-01-28T20:16:34.581Z,100917.16
2023-01-28T20:19:04.895Z,100922.44
2023-01-28T20:21:33.720Z,100913.72
2023-01-28T20:24:02.998Z,100900.00
2023-01-28T20:26:36.308Z,100894.97
2023-01-28T20:29:15.173Z,100886.91
2023-01-28T20:31:42.711Z,100867.91
2023-01-28T20:34:19.266Z,100834.16
2023-01-28T20:36:46.471Z,100824.66
2023-01-28T20:39:14.432Z,100836.59
2023-01-28T20:41:41.427Z,100831.22
2023-01-28T20:44:08.417Z,100852.13
2023-01-28T20:46:36.798Z,100879.28
2023-01-28T20:49:06.703Z,100860.72
2023-01-28T20:51:38.331Z,100886.09
2023-01-28T20:54:05.770Z,100902.09
2023-01-28T20:56:33.079Z,100919.41
2023-01-28T20:59:05.725Z,100908.44
2023-01-28T21:01:35.490Z,100881.63
2023-01-28T21:04:06.714Z,100889.59
2023-01-28T21:06:36.507Z,100879.75
2023-01-28T21:09:04.876Z,100887.47
2023-01-28T21:14:02.465Z,100851.31
2023-01-28T21:16:29.847Z,100846.19
2023-01-28T21:18:56.888Z,100841.63
2023-01-28T21:21:28.046Z,100864.41
2023-01-28T21:23:57.933Z,100874.81
2023-01-28T21:26:25.139Z,100888.72
2023-01-28T21:28:52.189Z,100911.75
2023-01-28T21:31:25.678Z,100935.25
2023-01-28T21:33:56.435Z,100916.16
2023-01-28T21:36:24.935Z,100910.97
2023-01-28T21:38:54.117Z,100918.66
2023-01-28T21:41:21.213Z,100908.19
2023-01-28T21:43:53.674Z,100908.28
2023-01-28T21:46:22.411Z,100901.38
2023-01-28T21:48:49.632Z,100889.16
2023-01-28T21:51:39.302Z,100897.69
2023-01-28T21:54:12.315Z,100919.22
2023-01-28T21:56:39.800Z,100920.91
2023-01-28T21:59:25.181Z,100905.13
2023-01-28T22:01:52.383Z,100920.03
2023-01-28T22:04:19.522Z,100905.31
2023-01-28T22:06:46.908Z,100890.69
2023-01-28T22:09:14.404Z,100882.88
2023-01-28T22:11:43.579Z,100887.09
2023-01-28T22:14:11.374Z,100897.41
2023-01-28T22:16:38.898Z,100899.84
2023-01-28T22:19:06.021Z,100920.47
2023-01-28T22:21:33.476Z,100944.16
2023-01-28T22:24:00.451Z,100942.97
2023-01-28T22:26:27.423Z,100916.09
2023-01-28T22:28:54.402Z,100900.47
2023-01-28T22:31:21.439Z,100894.66
2023-01-28T22:33:48.431Z,100895.38
2023-01-28T22:36:16.494Z,100858.16
2023-01-28T22:38:45.398Z,100820.84
2023-01-28T22:41:22.693Z,100801.66
2023-01-28T22:43:51.659Z,100772.25
2023-01-28T22:46:21.875Z,100755.19
2023-01-28T22:48:50.181Z,100741.22
2023-01-28T22:51:20.770Z,100771.69
2023-01-28T22:53:49.280Z,100761.13
2023-01-28T22:56:19.431Z,100757.63
2023-01-28T22:58:46.992Z,100765.16
2023-01-28T23:01:15.616Z,100774.41
2023-01-28T23:03:47.748Z,100774.34
2023-01-28T23:06:18.201Z,100757.75
2023-01-28T23:08:45.225Z,100764.53
2023-01-28T23:11:22.961Z,100784.34
2023-01-28T23:14:08.439Z,100812.94
2023-01-28T23:16:54.014Z,100809.38
2023-01-28T23:19:39.947Z,100828.38
2023-01-28T23:22:34.976Z,100851.69
2023-01-28T23:25:01.905Z,100872.38
2023-01-28T23:27:28.823Z,100883.59
2023-01-28T23:29:55.746Z,100883.31
2023-01-28T23:32:23.072Z,100849.44
2023-01-28T23:34:50.310Z,100814.38
2023-01-28T23:37:17.704Z,100767.22
2023-01-28T23:39:44.743Z,100727.31
2023-01-28T23:42:21.139Z,100703.75
2023-01-28T23:44:48.605Z,100707.34
2023-01-28T23:47:15.859Z,100694.09
2023-01-28T23:49:42.866Z,100694.66
2023-01-28T23:52:09.913Z,100669.72
2023-01-28T23:54:36.944Z,100631.69
2023-01-28T23:57:05.037Z,100610.00
2023-01-28T23:59:32.243Z,100610.97
